createdAt,value
2022-12-12T00:01:21.564Z,8.70
2022-12-12T00:03:49.956Z,8.80
2022-12-12T00:06:18.384Z,8.70
2022-12-12T00:08:46.714Z,8.40
2022-12-12T00:11:15.160Z,8.40
2022-12-12T00:13:44.150Z,9.10
2022-12-12T00:16:12.898Z,9.60
2022-12-12T00:18:42.455Z,9.70
2022-12-12T00:21:15.100Z,9.70
2022-12-12T00:23:43.805Z,10.30
2022-12-12T00:26:17.647Z,10.50
2022-12-12T00:28:45.724Z,10.30
2022-12-12T00:31:14.531Z,10.70
2022-12-12T00:33:44.808Z,10.70
2022-12-12T00:36:14.704Z,10.10
2022-12-12T00:38:42.692Z,10.30
2022-12-12T00:41:10.832Z,10.30
2022-12-12T00:43:39.147Z,10.20
2022-12-12T00:46:07.645Z,10.40
2022-12-12T00:48:35.945Z,10.40
2022-12-12T00:51:10.150Z,10.40
2022-12-12T00:53:38.312Z,10.80
2022-12-12T00:56:06.910Z,10.50
2022-12-12T00:58:35.245Z,10.70
2022-12-12T01:01:09.049Z,10.10
2022-12-12T01:03:37.805Z,10.40
2022-12-12T01:06:06.299Z,9.80
2022-12-12T01:08:35.596Z,9.60
2022-12-12T01:11:03.778Z,9.70
2022-12-12T01:13:31.993Z,9.90
2022-12-12T01:16:00.363Z,9.80
2022-12-12T01:18:29.597Z,9.30
2022-12-12T01:20:57.563Z,9.10
2022-12-12T01:23:25.998Z,9.50
2022-12-12T01:26:02.355Z,9.60
2022-12-12T01:28:30.362Z,9.50
2022-12-12T01:30:58.488Z,9.30
2022-12-12T01:33:26.663Z,9.30
2022-12-12T01:35:54.647Z,9.00
2022-12-12T01:38:25.929Z,9.30
2022-12-12T01:40:56.757Z,9.40
2022-12-12T01:43:27.011Z,9.20
2022-12-12T01:46:31.331Z,9.40
2022-12-12T01:49:03.605Z,10.10
2022-12-12T01:51:32.364Z,9.70
2022-12-12T01:54:05.499Z,9.70
2022-12-12T01:56:34.590Z,9.60
2022-12-12T01:59:06.108Z,9.50
2022-12-12T02:01:34.625Z,9.10
2022-12-12T02:04:03.556Z,9.00
2022-12-12T02:06:31.886Z,8.80
2022-12-12T02:09:05.098Z,8.50
2022-12-12T02:11:36.061Z,8.60
2022-12-12T02:14:05.695Z,8.70
2022-12-12T02:16:50.492Z,8.40
2022-12-12T02:19:46.657Z,8.60
2022-12-12T02:22:25.269Z,8.90
2022-12-12T02:25:08.842Z,8.50
2022-12-12T02:28:03.921Z,8.70
2022-12-12T02:30:41.331Z,8.80
2022-12-12T02:33:27.808Z,9.20
2022-12-12T02:36:06.850Z,9.60
2022-12-12T02:38:42.176Z,9.50
2022-12-12T02:41:20.288Z,8.90
2022-12-12T02:43:58.917Z,9.00
2022-12-12T02:46:32.775Z,8.90
2022-12-12T02:49:05.779Z,8.90
2022-12-12T02:51:35.462Z,9.10
2022-12-12T02:54:06.024Z,9.40
2022-12-12T02:56:50.665Z,9.30
2022-12-12T02:59:23.500Z,9.10
2022-12-12T03:02:11.422Z,9.20
2022-12-12T03:05:09.370Z,9.10
2022-12-12T03:07:48.679Z,9.10
2022-12-12T03:10:27.991Z,8.80
2022-12-12T03:13:10.041Z,8.70
2022-12-12T03:15:45.120Z,8.80
2022-12-12T03:18:23.701Z,8.70
2022-12-12T03:20:59.137Z,8.40
2022-12-12T03:23:31.722Z,8.40
2022-12-12T03:26:04.943Z,8.50
2022-12-12T03:28:38.915Z,8.50
2022-12-12T03:31:10.582Z,8.40
2022-12-12T03:33:42.911Z,8.20
2022-12-12T03:36:17.088Z,8.10
2022-12-12T03:38:56.851Z,8.00
2022-12-12T03:41:30.010Z,8.20
2022-12-12T03:44:01.593Z,8.30
2022-12-12T03:46:34.226Z,8.00
2022-12-12T03:49:06.326Z,7.90
2022-12-12T03:51:40.945Z,8.60
2022-12-12T03:54:13.540Z,8.70
2022-12-12T03:56:47.422Z,8.60
2022-12-12T03:59:21.590Z,8.60
2022-12-12T04:01:59.801Z,8.50
2022-12-12T04:04:34.911Z,8.40
2022-12-12T04:07:10.069Z,8.30
2022-12-12T04:09:56.062Z,8.40
2022-12-12T04:12:53.516Z,8.60
2022-12-12T04:15:46.905Z,9.10
2022-12-12T04:18:21.525Z,8.70
2022-12-12T04:21:31.712Z,9.00
2022-12-12T04:24:09.907Z,8.80
2022-12-12T04:26:41.875Z,8.70
2022-12-12T04:29:33.563Z,8.90
2022-12-12T04:32:09.794Z,8.70
2022-12-12T04:34:42.330Z,8.50
2022-12-12T04:37:16.505Z,8.50
2022-12-12T04:39:56.154Z,8.50
2022-12-12T04:42:31.179Z,8.20
2022-12-12T04:45:07.015Z,8.20
2022-12-12T04:47:37.301Z,8.30
2022-12-12T04:50:09.119Z,8.80
2022-12-12T04:52:40.666Z,8.80
2022-12-12T04:55:13.127Z,8.60
2022-12-12T04:57:45.610Z,8.50
2022-12-12T05:00:15.059Z,8.80
2022-12-12T05:02:51.418Z,9.10
2022-12-12T05:05:22.708Z,9.20
2022-12-12T05:07:56.845Z,9.20
2022-12-12T05:10:26.441Z,9.70
2022-12-12T05:13:01.157Z,9.90
2022-12-12T05:15:30.367Z,9.50
2022-12-12T05:18:01.663Z,9.20
2022-12-12T05:20:29.787Z,9.30
2022-12-12T05:22:57.736Z,9.10
2022-12-12T05:25:27.383Z,9.10
2022-12-12T05:27:55.364Z,8.90
2022-12-12T05:30:23.991Z,9.40
2022-12-12T05:32:52.255Z,9.70
2022-12-12T05:35:20.300Z,10.20
2022-12-12T05:37:51.611Z,10.10
2022-12-12T05:40:21.138Z,10.50
2022-12-12T05:42:50.600Z,10.30
2022-12-12T05:45:18.766Z,10.20
2022-12-12T05:47:46.720Z,9.90
2022-12-12T05:50:14.713Z,10.00
2022-12-12T05:52:42.705Z,9.50
2022-12-12T05:55:10.889Z,9.50
2022-12-12T05:57:39.897Z,9.40
2022-12-12T06:00:11.128Z,9.70
2022-12-12T06:02:39.260Z,9.60
2022-12-12T06:05:07.841Z,9.40
2022-12-12T06:07:35.877Z,9.40
2022-12-12T06:10:04.574Z,9.60
2022-12-12T06:12:32.545Z,9.90
2022-12-12T06:15:00.557Z,9.50
2022-12-12T06:17:33.274Z,9.60
2022-12-12T06:20:02.322Z,9.60
2022-12-12T06:22:30.290Z,9.80
2022-12-12T06:24:58.265Z,9.60
2022-12-12T06:27:26.289Z,10.00
2022-12-12T06:29:54.230Z,9.70
2022-12-12T06:32:22.262Z,9.40
2022-12-12T06:34:51.615Z,9.70
2022-12-12T06:37:19.596Z,8.90
2022-12-12T06:39:47.711Z,9.20
2022-12-12T06:42:15.682Z,9.50
2022-12-12T06:44:43.810Z,9.50
2022-12-12T06:47:11.778Z,9.40
2022-12-12T06:49:39.914Z,9.90
2022-12-12T06:52:09.285Z,9.80
2022-12-12T06:54:37.581Z,9.60
2022-12-12T06:57:05.625Z,9.80
2022-12-12T06:59:33.914Z,9.90
2022-12-12T07:02:02.044Z,10.00
2022-12-12T07:04:30.077Z,10.00
2022-12-12T07:06:58.335Z,9.80
2022-12-12T07:09:28.287Z,9.70
2022-12-12T07:11:56.248Z,9.70
2022-12-12T07:14:24.228Z,10.00
2022-12-12T07:16:52.171Z,9.90
2022-12-12T07:19:20.199Z,10.20
2022-12-12T07:21:51.129Z,10.50
2022-12-12T07:24:19.160Z,9.70
2022-12-12T07:26:49.638Z,9.90
2022-12-12T07:29:17.610Z,9.60
2022-12-12T07:31:45.587Z,9.60
2022-12-12T07:34:13.594Z,9.90
2022-12-12T07:36:42.272Z,9.40
2022-12-12T07:39:10.282Z,9.60
2022-12-12T07:41:40.948Z,8.90
2022-12-12T07:44:10.358Z,8.70
2022-12-12T07:46:38.407Z,8.70
2022-12-12T07:49:06.425Z,9.40
2022-12-12T07:51:34.453Z,9.30
2022-12-12T07:54:02.429Z,9.60
2022-12-12T07:56:30.428Z,9.60
2022-12-12T07:58:58.411Z,9.80
2022-12-12T08:01:31.280Z,10.00
2022-12-12T08:04:00.820Z,9.80
2022-12-12T08:06:28.853Z,9.40
2022-12-12T08:08:56.857Z,9.30
2022-12-12T08:11:28.715Z,9.30
2022-12-12T08:13:56.682Z,9.30
2022-12-12T08:16:27.618Z,9.50
2022-12-12T08:18:56.675Z,9.40
2022-12-12T08:21:26.743Z,9.80
2022-12-12T08:23:57.710Z,10.10
2022-12-12T08:26:26.943Z,10.00
2022-12-12T08:28:56.619Z,9.90
2022-12-12T08:31:25.496Z,9.80
2022-12-12T08:33:55.124Z,9.60
2022-12-12T08:36:24.750Z,9.60
2022-12-12T08:38:53.221Z,9.70
2022-12-12T08:41:21.577Z,10.00
2022-12-12T08:43:53.043Z,9.60
2022-12-12T08:46:22.615Z,9.90
2022-12-12T08:48:51.005Z,9.80
2022-12-12T08:51:20.673Z,9.70
2022-12-12T08:53:50.137Z,10.00
2022-12-12T08:56:19.282Z,10.10
2022-12-12T08:58:47.811Z,9.80
2022-12-12T09:01:18.385Z,9.80
2022-12-12T09:03:46.862Z,10.10
2022-12-12T09:06:15.329Z,10.40
2022-12-12T09:08:44.741Z,10.30
2022-12-12T09:11:13.010Z,10.20
2022-12-12T09:13:41.573Z,10.00
2022-12-12T09:16:10.857Z,10.00
2022-12-12T09:18:46.381Z,10.10
2022-12-12T09:21:17.183Z,10.00
2022-12-12T09:23:48.541Z,9.50
2022-12-12T09:26:17.842Z,9.40
2022-12-12T09:28:45.845Z,9.70
2022-12-12T09:31:14.519Z,9.60
2022-12-12T09:33:43.244Z,10.30
2022-12-12T09:36:13.052Z,10.70
2022-12-12T09:38:44.202Z,10.60
2022-12-12T09:41:16.836Z,10.40
2022-12-12T09:43:51.451Z,10.40
2022-12-12T09:46:28.603Z,10.70
2022-12-12T09:49:01.569Z,10.40
2022-12-12T09:51:29.632Z,10.50
2022-12-12T09:53:57.738Z,10.60
2022-12-12T09:56:36.235Z,10.60
2022-12-12T09:59:11.249Z,10.50
2022-12-12T10:02:01.990Z,10.20
2022-12-12T10:04:37.804Z,10.00
2022-12-12T10:07:12.326Z,10.50
2022-12-12T10:09:54.505Z,10.50
2022-12-12T10:12:24.658Z,10.90
2022-12-12T10:14:55.690Z,10.40
2022-12-12T10:17:28.739Z,10.20
2022-12-12T10:20:00.124Z,10.10
2022-12-12T10:22:37.001Z,9.70
2022-12-12T10:25:16.184Z,10.20
2022-12-12T10:27:45.882Z,10.10
2022-12-12T10:30:20.179Z,10.30
2022-12-12T10:33:04.674Z,10.20
2022-12-12T10:35:42.257Z,10.30
2022-12-12T10:38:25.566Z,10.00
2022-12-12T10:41:00.571Z,9.70
2022-12-12T10:43:36.087Z,9.50
2022-12-12T10:46:16.127Z,9.40
2022-12-12T10:48:45.250Z,9.40
2022-12-12T10:51:17.571Z,9.80
2022-12-12T10:53:46.092Z,9.90
2022-12-12T10:56:21.306Z,10.40
2022-12-12T10:58:57.481Z,10.70
2022-12-12T11:02:00.469Z,10.90
2022-12-12T11:04:17.439Z,10.30
2022-12-12T11:06:49.025Z,10.10
2022-12-12T11:09:20.981Z,10.20
2022-12-12T11:12:00.289Z,10.20
2022-12-12T11:14:34.578Z,10.00
2022-12-12T11:17:03.189Z,9.80
2022-12-12T11:19:39.616Z,9.70
2022-12-12T11:22:07.667Z,9.70
2022-12-12T11:24:37.501Z,9.50
2022-12-12T11:27:07.934Z,9.40
2022-12-12T11:29:43.784Z,9.20
2022-12-12T11:32:15.165Z,9.10
2022-12-12T11:34:47.557Z,8.90
2022-12-12T11:37:18.036Z,9.40
2022-12-12T11:39:47.819Z,9.30
2022-12-12T11:42:22.533Z,9.50
2022-12-12T11:45:02.215Z,9.90
2022-12-12T11:47:38.347Z,9.60
2022-12-12T11:50:19.582Z,9.80
2022-12-12T11:52:49.090Z,9.70
2022-12-12T11:55:19.047Z,9.80
2022-12-12T11:58:03.973Z,10.00
2022-12-12T12:00:46.144Z,9.40
2022-12-12T12:03:28.289Z,9.50
2022-12-12T12:06:12.903Z,9.80
2022-12-12T12:08:58.203Z,9.90
2022-12-12T12:11:33.272Z,10.10
2022-12-12T12:14:15.965Z,10.40
2022-12-12T12:16:57.645Z,10.20
2022-12-12T12:19:34.915Z,10.40
2022-12-12T12:22:15.365Z,10.40
2022-12-12T12:25:02.061Z,10.00
2022-12-12T12:27:38.549Z,10.00
2022-12-12T12:30:20.236Z,9.60
2022-12-12T12:33:07.192Z,9.70
2022-12-12T12:35:45.394Z,10.00
2022-12-12T12:38:25.890Z,10.00
2022-12-12T12:41:12.056Z,10.00
2022-12-12T12:43:53.450Z,10.00
2022-12-12T12:46:30.440Z,10.00
2022-12-12T12:49:04.367Z,9.90
2022-12-12T12:51:37.584Z,9.40
2022-12-12T12:54:08.589Z,9.40
2022-12-12T12:56:43.987Z,9.80
2022-12-12T12:59:16.025Z,10.00
2022-12-12T13:01:48.138Z,9.70
2022-12-12T13:04:22.010Z,9.80
2022-12-12T13:06:55.595Z,10.20
2022-12-12T13:09:31.930Z,10.60
2022-12-12T13:12:04.668Z,10.60
2022-12-12T13:14:40.720Z,10.50
2022-12-12T13:17:17.877Z,10.80
2022-12-12T13:19:50.121Z,10.90
2022-12-12T13:22:24.321Z,10.30
2022-12-12T13:25:00.164Z,9.70
2022-12-12T13:27:34.084Z,9.20
2022-12-12T13:30:06.161Z,9.50
2022-12-12T13:32:56.517Z,9.10
2022-12-12T13:35:30.828Z,8.90
2022-12-12T13:37:59.419Z,9.10
2022-12-12T13:40:31.294Z,9.40
2022-12-12T13:43:09.684Z,9.40
2022-12-12T13:45:42.759Z,9.80
2022-12-12T13:48:34.866Z,10.40
2022-12-12T13:51:42.146Z,10.30
2022-12-12T13:54:52.748Z,10.00
2022-12-12T13:57:30.625Z,10.00
2022-12-12T14:00:21.174Z,9.50
2022-12-12T14:03:25.384Z,9.60
2022-12-12T14:05:54.354Z,10.10
2022-12-12T14:08:31.447Z,10.30
2022-12-12T14:11:02.555Z,10.70
2022-12-12T14:13:43.022Z,10.70
2022-12-12T14:16:26.129Z,10.40
2022-12-12T14:19:06.848Z,10.20
2022-12-12T14:21:44.864Z,10.00
2022-12-12T14:24:48.103Z,9.90
2022-12-12T14:27:16.607Z,10.10
2022-12-12T14:29:45.618Z,10.50
2022-12-12T14:32:29.848Z,10.50
2022-12-12T14:35:13.125Z,10.40
2022-12-12T14:37:51.875Z,10.80
2022-12-12T14:40:24.002Z,11.10
2022-12-12T14:43:19.434Z,10.80
2022-12-12T14:45:55.365Z,10.30
2022-12-12T14:48:25.738Z,10.30
2022-12-12T14:51:09.077Z,9.70
2022-12-12T14:53:49.832Z,9.40
2022-12-12T14:56:21.748Z,9.40
2022-12-12T14:58:58.966Z,9.00
2022-12-12T15:01:32.857Z,9.20
2022-12-12T15:04:02.964Z,9.30
2022-12-12T15:06:36.941Z,9.30
2022-12-12T15:09:21.111Z,9.40
2022-12-12T15:11:50.889Z,9.50
2022-12-12T15:14:21.646Z,9.70
2022-12-12T15:16:53.505Z,9.40
2022-12-12T15:19:26.410Z,9.50
2022-12-12T15:21:55.205Z,9.90
2022-12-12T15:24:25.076Z,10.30
2022-12-12T15:26:57.076Z,9.80
2022-12-12T15:29:26.962Z,9.70
2022-12-12T15:32:00.642Z,9.50
2022-12-12T15:34:40.853Z,9.70
2022-12-12T15:37:28.098Z,10.20
2022-12-12T15:40:13.325Z,10.50
2022-12-12T15:42:45.586Z,10.40
2022-12-12T15:45:23.207Z,10.20
2022-12-12T15:47:53.153Z,10.10
2022-12-12T15:50:24.021Z,9.70
2022-12-12T15:53:01.284Z,9.50
2022-12-12T15:55:30.285Z,9.40
2022-12-12T15:57:59.836Z,9.70
2022-12-12T16:00:34.998Z,9.40
2022-12-12T16:03:20.591Z,9.30
2022-12-12T16:06:02.989Z,9.50
2022-12-12T16:08:37.843Z,9.60
2022-12-12T16:11:07.519Z,10.30
2022-12-12T16:13:39.161Z,9.90
2022-12-12T16:16:36.471Z,9.30
2022-12-12T16:19:06.262Z,9.40
2022-12-12T16:21:36.583Z,9.70
2022-12-12T16:24:13.066Z,9.50
2022-12-12T16:26:41.047Z,9.90
2022-12-12T16:29:10.342Z,9.90
2022-12-12T16:31:38.355Z,9.70
2022-12-12T16:34:06.368Z,9.20
2022-12-12T16:36:41.472Z,9.40
2022-12-12T16:39:10.589Z,9.40
2022-12-12T16:41:38.738Z,9.10
2022-12-12T16:44:09.522Z,9.20
2022-12-12T16:46:38.946Z,9.00
2022-12-12T16:49:15.535Z,9.40
2022-12-12T16:51:43.914Z,9.50
2022-12-12T16:54:17.425Z,9.80
2022-12-12T16:56:52.290Z,9.50
2022-12-12T16:59:20.325Z,9.30
2022-12-12T17:01:49.880Z,9.80
2022-12-12T17:04:22.796Z,9.90
2022-12-12T17:06:51.194Z,9.60
2022-12-12T17:09:19.782Z,10.10
2022-12-12T17:11:50.561Z,10.00
2022-12-12T17:14:25.515Z,10.00
2022-12-12T17:16:55.983Z,10.10
2022-12-12T17:19:28.624Z,10.30
2022-12-12T17:21:56.602Z,10.60
2022-12-12T17:24:24.604Z,10.40
2022-12-12T17:26:52.583Z,10.10
2022-12-12T17:29:20.566Z,10.40
2022-12-12T17:31:52.008Z,9.90
2022-12-12T17:34:21.430Z,10.00
2022-12-12T17:36:52.172Z,10.00
2022-12-12T17:39:20.270Z,10.00
2022-12-12T17:41:49.396Z,10.00
2022-12-12T17:44:17.408Z,10.20
2022-12-12T17:46:45.362Z,10.40
2022-12-12T17:49:16.233Z,10.30
2022-12-12T17:51:45.518Z,10.00
2022-12-12T17:54:13.478Z,9.80
2022-12-12T17:56:42.426Z,10.00
2022-12-12T17:59:10.471Z,10.00
2022-12-12T18:01:38.520Z,10.20
2022-12-12T18:04:06.848Z,10.00
2022-12-12T18:06:36.070Z,9.90
2022-12-12T18:09:05.830Z,10.00
2022-12-12T18:11:35.900Z,10.20
2022-12-12T18:14:06.583Z,10.00
2022-12-12T18:16:37.039Z,9.80
2022-12-12T18:19:05.703Z,9.90
2022-12-12T18:21:59.639Z,9.90
2022-12-12T18:24:29.526Z,10.30
2022-12-12T18:26:59.417Z,10.20
2022-12-12T18:29:29.649Z,10.20
2022-12-12T18:31:57.740Z,10.30
2022-12-12T18:34:26.592Z,10.70
2022-12-12T18:36:54.595Z,10.90
2022-12-12T18:39:24.124Z,10.60
2022-12-12T18:41:52.422Z,10.90
2022-12-12T18:44:20.657Z,10.90
2022-12-12T18:46:50.687Z,10.80
2022-12-12T18:49:19.074Z,10.80
2022-12-12T18:51:47.578Z,11.00
2022-12-12T18:54:16.971Z,11.30
2022-12-12T18:56:47.768Z,11.20
2022-12-12T18:59:16.534Z,11.10
2022-12-12T19:01:45.891Z,10.80
2022-12-12T19:04:20.833Z,11.00
2022-12-12T19:06:50.662Z,11.10
2022-12-12T19:09:20.937Z,11.70
2022-12-12T19:11:58.223Z,12.00
2022-12-12T19:14:46.045Z,12.40
2022-12-12T19:17:22.091Z,12.20
2022-12-12T19:19:53.781Z,12.50
2022-12-12T19:25:10.685Z,12.00
2022-12-12T19:27:40.030Z,12.30
2022-12-12T19:30:12.199Z,12.20
2022-12-12T19:32:40.513Z,12.10
2022-12-12T19:35:09.985Z,11.70
2022-12-12T19:37:38.303Z,11.80
2022-12-12T19:40:07.527Z,12.60
2022-12-12T19:42:35.564Z,12.90
2022-12-12T19:45:05.797Z,12.10
2022-12-12T19:47:34.101Z,11.70
2022-12-12T19:50:02.274Z,11.40
2022-12-12T19:52:30.254Z,11.30
2022-12-12T19:54:58.204Z,11.30
2022-12-12T19:57:26.402Z,11.80
2022-12-12T19:59:54.420Z,11.80
2022-12-12T20:02:23.816Z,11.20
2022-12-12T20:04:51.775Z,10.90
2022-12-12T20:07:19.768Z,11.00
2022-12-12T20:09:47.916Z,11.20
2022-12-12T20:12:15.891Z,11.60
2022-12-12T20:14:44.232Z,11.80
2022-12-12T20:17:12.189Z,11.90
2022-12-12T20:19:42.371Z,11.90
2022-12-12T20:22:10.339Z,11.60
2022-12-12T20:24:38.292Z,11.40
2022-12-12T20:27:06.625Z,11.40
2022-12-12T20:29:34.611Z,11.50
2022-12-12T20:32:03.183Z,11.40
2022-12-12T20:34:31.208Z,11.40
2022-12-12T20:37:00.516Z,11.20
2022-12-12T20:39:29.602Z,10.80
2022-12-12T20:41:57.782Z,10.80
2022-12-12T20:44:26.050Z,10.60
2022-12-12T20:46:54.374Z,11.20
2022-12-12T20:49:24.478Z,11.50
2022-12-12T20:51:57.041Z,11.50
2022-12-12T20:54:29.869Z,11.20
2022-12-12T20:56:58.531Z,11.30
2022-12-12T20:59:27.984Z,11.70
2022-12-12T21:01:56.160Z,11.60
2022-12-12T21:04:28.122Z,11.50
2022-12-12T21:06:56.105Z,11.50
2022-12-12T21:09:26.413Z,11.50
2022-12-12T21:11:59.836Z,11.60
2022-12-12T21:14:30.656Z,11.90
2022-12-12T21:16:58.670Z,11.80
2022-12-12T21:19:26.593Z,12.10
2022-12-12T21:21:54.898Z,12.00
2022-12-12T21:24:22.869Z,12.10
2022-12-12T21:26:50.928Z,11.80
2022-12-12T21:29:20.372Z,11.50
2022-12-12T21:31:51.887Z,11.80
2022-12-12T21:34:21.469Z,11.60
2022-12-12T21:36:52.168Z,10.80
2022-12-12T21:39:20.347Z,10.80
2022-12-12T21:41:48.455Z,10.50
2022-12-12T21:44:16.400Z,10.20
2022-12-12T21:46:45.665Z,10.40
2022-12-12T21:49:30.741Z,9.80
2022-12-12T21:52:01.219Z,9.70
2022-12-12T21:54:30.224Z,9.90
2022-12-12T21:56:58.629Z,10.00
2022-12-12T21:59:27.060Z,9.60
2022-12-12T22:01:57.773Z,10.40
2022-12-12T22:04:26.386Z,10.50
2022-12-12T22:06:57.021Z,10.60
2022-12-12T22:09:25.109Z,10.50
2022-12-12T22:12:03.087Z,10.30
2022-12-12T22:14:33.000Z,10.40
2022-12-12T22:17:03.101Z,10.10
2022-12-12T22:19:31.590Z,10.40
2022-12-12T22:22:02.378Z,10.20
2022-12-12T22:24:30.316Z,9.80
2022-12-12T22:26:58.386Z,10.10
2022-12-12T22:29:26.286Z,9.60
2022-12-12T22:31:55.976Z,9.80
2022-12-12T22:34:26.987Z,10.00
2022-12-12T22:36:55.008Z,9.60
2022-12-12T22:39:24.673Z,9.40
2022-12-12T22:41:53.268Z,9.50
2022-12-12T22:44:22.691Z,8.90
2022-12-12T22:46:52.804Z,8.60
2022-12-12T22:49:25.419Z,8.80
2022-12-12T22:51:58.287Z,9.40
2022-12-12T22:54:28.273Z,9.60
2022-12-12T22:56:56.541Z,10.00
2022-12-12T22:59:25.291Z,10.10
2022-12-12T23:01:53.316Z,10.70
2022-12-12T23:04:21.532Z,10.10
2022-12-12T23:06:49.613Z,10.40
2022-12-12T23:09:21.533Z,10.80
2022-12-12T23:11:50.628Z,10.40
2022-12-12T23:14:21.677Z,10.00
2022-12-12T23:16:50.452Z,10.40
2022-12-12T23:19:20.650Z,10.30
2022-12-12T23:21:49.033Z,10.00
2022-12-12T23:24:18.370Z,9.70
2022-12-12T23:26:46.876Z,10.10
2022-12-12T23:29:16.895Z,9.90
2022-12-12T23:31:45.586Z,9.50
2022-12-12T23:34:15.890Z,9.00
2022-12-12T23:36:44.732Z,8.70
2022-12-12T23:39:13.836Z,9.30
2022-12-12T23:41:44.587Z,9.70
2022-12-12T23:44:15.056Z,10.00
2022-12-12T23:46:43.383Z,10.20
2022-12-12T23:49:17.242Z,10.00
2022-12-12T23:51:47.051Z,9.80
2022-12-12T23:54:20.712Z,9.50
2022-12-12T23:56:50.791Z,9.50
2022-12-12T23:59:20.573Z,8.60
